Moosomin, Canada
Current Conditions -  °F | °C
As of 8:00 AM on Friday 31 Oct 2014 (Local Time) from CYBR Reporting Station
Scattered Clouds Scattered Clouds  
Wind Chill:   Ceiling: Unl
Heat Index: 14°   Visibility: 15mi
Dew Point: 10°   Wind: 6mph
Humidity: 86%   Direction: 140°SE
Pressure: 30.5"   Gusts: NA
Location:  50.15°N, 101.67°W
Report Text: CYBR 311400Z 14005KT 15SM SCT250 M10/M12 A3050 RMK CI4 SLP363
Loading
Personal Weather Stations






























Interactive Weather Map New forecast layout! Learn more

10-Day Weather Forecast

Advertisements
Track Severe Weather on mobile